createdAt,value
2022-12-16T00:01:14.781Z,15.17
2022-12-16T00:03:44.246Z,18.00
2022-12-16T00:06:13.471Z,15.13
2022-12-16T00:08:41.449Z,18.80
2022-12-16T00:11:09.963Z,15.67
2022-12-16T00:13:40.338Z,14.93
2022-12-16T00:16:10.530Z,16.93
2022-12-16T00:18:38.609Z,15.70
2022-12-16T00:21:06.553Z,15.93
2022-12-16T00:23:36.773Z,16.17
2022-12-16T00:26:04.659Z,16.13
2022-12-16T00:28:32.991Z,16.50
2022-12-16T00:31:00.912Z,15.13
2022-12-16T00:33:29.318Z,15.37
2022-12-16T00:35:57.186Z,15.10
2022-12-16T00:38:27.174Z,17.00
2022-12-16T00:40:56.752Z,14.33
2022-12-16T00:43:24.643Z,15.03
2022-12-16T00:45:52.742Z,15.00
2022-12-16T00:48:22.934Z,15.57
2022-12-16T00:50:51.925Z,15.27
2022-12-16T00:53:20.177Z,15.60
2022-12-16T00:55:47.829Z,13.27
2022-12-16T00:58:16.989Z,12.37
2022-12-16T01:00:45.017Z,13.87
2022-12-16T01:03:17.941Z,16.17
2022-12-16T01:05:47.199Z,13.87
2022-12-16T01:08:14.837Z,15.13
2022-12-16T01:10:42.468Z,11.93
2022-12-16T01:13:10.219Z,14.00
2022-12-16T01:15:40.636Z,12.43
2022-12-16T01:18:08.387Z,11.57
2022-12-16T01:20:36.026Z,12.97
2022-12-16T01:23:03.622Z,12.57
2022-12-16T01:25:31.643Z,12.47
2022-12-16T01:27:59.290Z,12.63
2022-12-16T01:30:27.227Z,12.20
2022-12-16T01:32:56.212Z,12.20
2022-12-16T01:35:51.910Z,10.67
2022-12-16T01:38:11.426Z,12.10
2022-12-16T01:40:39.085Z,13.13
2022-12-16T01:43:12.628Z,12.10
2022-12-16T01:45:40.618Z,14.67
2022-12-16T01:48:20.799Z,12.63
2022-12-16T01:50:50.807Z,12.13
2022-12-16T01:53:18.552Z,12.57
2022-12-16T01:55:50.650Z,11.77
2022-12-16T01:58:23.392Z,13.77
2022-12-16T02:00:51.522Z,11.80
2022-12-16T02:03:21.387Z,11.47
2022-12-16T02:05:50.225Z,13.10
2022-12-16T02:08:19.912Z,12.13
2022-12-16T02:11:01.721Z,12.43
2022-12-16T02:13:40.119Z,11.73
2022-12-16T02:16:17.351Z,13.57
2022-12-16T02:18:56.400Z,13.17
2022-12-16T02:21:43.758Z,12.37
2022-12-16T02:24:44.719Z,13.87
2022-12-16T02:27:41.743Z,13.83
2022-12-16T02:30:25.703Z,14.17
2022-12-16T02:33:04.186Z,14.90
2022-12-16T02:35:40.954Z,14.33
2022-12-16T02:38:18.831Z,13.83
2022-12-16T02:40:53.025Z,14.80
2022-12-16T02:43:36.852Z,15.27
2022-12-16T02:46:08.236Z,15.17
2022-12-16T02:48:36.406Z,13.23
2022-12-16T02:51:04.162Z,15.73
2022-12-16T02:53:34.611Z,13.60
2022-12-16T02:56:12.535Z,15.23
2022-12-16T02:58:48.118Z,12.80
2022-12-16T03:01:25.571Z,14.63
2022-12-16T03:04:01.363Z,14.00
2022-12-16T03:06:31.632Z,15.90
2022-12-16T03:09:03.019Z,14.70
2022-12-16T03:11:32.415Z,15.13
2022-12-16T03:14:02.347Z,17.67
2022-12-16T03:16:33.709Z,16.70
2022-12-16T03:19:06.722Z,16.60
2022-12-16T03:21:39.561Z,15.17
2022-12-16T03:24:10.700Z,14.93
2022-12-16T03:26:44.435Z,13.93
2022-12-16T03:29:16.384Z,16.10
2022-12-16T03:31:52.062Z,14.67
2022-12-16T03:34:28.004Z,15.93
2022-12-16T03:37:01.405Z,14.27
2022-12-16T03:39:30.065Z,13.93
2022-12-16T03:41:58.413Z,14.60
2022-12-16T03:44:26.337Z,15.77
2022-12-16T03:46:55.292Z,16.10
2022-12-16T03:49:23.638Z,15.50
2022-12-16T03:51:51.279Z,15.60
2022-12-16T03:54:19.199Z,15.53
2022-12-16T03:56:47.649Z,15.13
2022-12-16T03:59:15.328Z,16.23
2022-12-16T04:01:43.754Z,17.53
2022-12-16T04:04:13.488Z,19.73
2022-12-16T04:06:41.221Z,17.90
2022-12-16T04:09:09.080Z,17.37
2022-12-16T04:11:54.312Z,18.53
2022-12-16T04:14:39.589Z,17.97
2022-12-16T04:17:24.871Z,17.83
2022-12-16T04:20:11.606Z,17.33
2022-12-16T04:22:59.459Z,18.20
2022-12-16T04:25:32.685Z,18.43
2022-12-16T04:28:00.785Z,20.47
2022-12-16T04:30:30.012Z,21.77
2022-12-16T04:33:18.071Z,21.37
2022-12-16T04:36:04.721Z,21.07
2022-12-16T04:38:50.000Z,22.87
2022-12-16T04:41:35.297Z,21.27
2022-12-16T04:44:21.165Z,21.80
2022-12-16T04:47:06.925Z,23.33
2022-12-16T04:50:00.759Z,22.37
2022-12-16T04:52:47.310Z,25.10
2022-12-16T04:55:32.578Z,19.53
2022-12-16T04:58:19.711Z,24.87
2022-12-16T05:01:06.105Z,23.87
2022-12-16T05:03:51.858Z,23.47
2022-12-16T05:06:37.794Z,24.07
2022-12-16T05:09:25.889Z,22.40
2022-12-16T05:12:11.176Z,26.23
2022-12-16T05:14:56.478Z,23.63
2022-12-16T05:17:41.675Z,23.37
2022-12-16T05:20:26.925Z,27.30
2022-12-16T05:23:14.487Z,26.40
2022-12-16T05:26:01.137Z,25.93
2022-12-16T05:28:46.890Z,25.97
2022-12-16T05:31:32.283Z,25.40
2022-12-16T05:34:17.437Z,23.60
2022-12-16T05:37:02.767Z,28.17
2022-12-16T05:39:48.041Z,25.43
2022-12-16T05:42:34.778Z,23.57
2022-12-16T05:45:20.070Z,26.73
2022-12-16T05:48:07.374Z,26.53
2022-12-16T05:50:57.946Z,28.10
2022-12-16T05:53:43.356Z,28.93
2022-12-16T05:56:28.540Z,25.30
2022-12-16T05:59:16.650Z,30.17
2022-12-16T06:02:07.386Z,25.03
2022-12-16T06:04:52.712Z,28.67
2022-12-16T06:07:37.956Z,31.20
2022-12-16T06:10:23.953Z,31.83
2022-12-16T06:13:09.344Z,29.17
2022-12-16T06:15:56.004Z,31.03
2022-12-16T06:18:41.385Z,29.07
2022-12-16T06:21:26.884Z,30.53
2022-12-16T06:24:12.158Z,28.63
2022-12-16T06:26:57.455Z,30.53
2022-12-16T06:29:42.657Z,31.80
2022-12-16T06:32:40.771Z,33.20
2022-12-16T06:35:26.881Z,33.40
2022-12-16T06:38:12.885Z,33.90
2022-12-16T06:40:57.983Z,30.73
2022-12-16T06:43:56.376Z,36.77
2022-12-16T06:46:41.689Z,34.13
2022-12-16T06:49:28.263Z,29.37
2022-12-16T06:52:13.606Z,33.40
2022-12-16T06:54:59.046Z,35.13
2022-12-16T06:57:44.425Z,34.10
2022-12-16T07:00:30.777Z,35.57
2022-12-16T07:06:49.521Z,33.23
2022-12-16T07:09:35.494Z,33.57
2022-12-16T07:12:20.083Z,29.60
2022-12-16T07:15:05.360Z,32.07
2022-12-16T07:17:50.742Z,31.37
2022-12-16T07:20:36.027Z,36.87
2022-12-16T07:23:22.579Z,33.30
2022-12-16T07:26:08.561Z,35.70
2022-12-16T07:29:08.344Z,33.43
2022-12-16T07:31:56.545Z,33.03
2022-12-16T07:34:47.162Z,35.30
2022-12-16T07:37:35.208Z,32.97
2022-12-16T07:40:22.315Z,34.47
2022-12-16T07:43:09.019Z,33.67
2022-12-16T07:45:54.825Z,32.90
2022-12-16T07:48:43.427Z,34.57
2022-12-16T07:51:28.837Z,37.87
2022-12-16T07:54:14.144Z,34.50
2022-12-16T07:57:00.674Z,33.90
2022-12-16T07:59:46.723Z,35.40
2022-12-16T08:02:35.352Z,35.50
2022-12-16T08:05:20.917Z,31.67
2022-12-16T08:08:06.271Z,31.17
2022-12-16T08:10:51.431Z,33.23
2022-12-16T08:13:37.581Z,31.07
2022-12-16T08:16:23.226Z,31.53
2022-12-16T08:19:11.221Z,30.10
2022-12-16T08:21:56.657Z,33.70
2022-12-16T08:24:56.481Z,32.80
2022-12-16T08:27:41.840Z,34.23
2022-12-16T08:30:29.384Z,34.57
2022-12-16T08:33:19.321Z,34.03
2022-12-16T08:36:05.284Z,31.57
2022-12-16T08:38:52.960Z,30.47
2022-12-16T08:41:38.255Z,38.20
2022-12-16T08:44:23.639Z,33.03
2022-12-16T08:47:10.145Z,34.73
2022-12-16T08:49:57.886Z,31.43
2022-12-16T08:52:54.548Z,36.13
2022-12-16T08:55:39.910Z,29.20
2022-12-16T08:58:25.248Z,32.40
2022-12-16T09:01:27.753Z,37.43
2022-12-16T09:04:10.871Z,34.10
2022-12-16T09:06:55.968Z,29.20
2022-12-16T09:09:41.384Z,31.00
2022-12-16T09:12:26.569Z,33.17
2022-12-16T09:15:12.142Z,30.80
2022-12-16T09:18:12.833Z,35.07
2022-12-16T09:21:02.085Z,32.53
2022-12-16T09:23:47.119Z,37.13
2022-12-16T09:26:32.621Z,33.37
2022-12-16T09:29:17.705Z,32.60
2022-12-16T09:32:02.965Z,32.17
2022-12-16T09:34:48.547Z,29.63
2022-12-16T09:37:35.120Z,29.73
2022-12-16T09:40:19.780Z,32.00
2022-12-16T09:43:09.464Z,31.93
2022-12-16T09:46:03.874Z,32.60
2022-12-16T09:48:59.551Z,32.43
2022-12-16T09:51:45.388Z,30.50
2022-12-16T09:54:35.875Z,27.50
2022-12-16T09:57:22.632Z,31.87
2022-12-16T10:00:14.014Z,31.30
2022-12-16T10:03:06.542Z,30.43
2022-12-16T10:06:03.088Z,45.90
2022-12-16T10:09:00.113Z,37.63
2022-12-16T10:11:57.427Z,32.43
2022-12-16T10:14:50.233Z,33.13
2022-12-16T10:17:41.699Z,33.03
2022-12-16T10:20:35.260Z,32.30
2022-12-16T10:23:24.811Z,29.17
2022-12-16T10:26:15.100Z,30.70
2022-12-16T10:29:05.119Z,30.47
2022-12-16T10:31:51.582Z,31.93
2022-12-16T10:34:39.195Z,29.63
2022-12-16T10:37:24.363Z,32.60
2022-12-16T10:40:14.770Z,34.03
2022-12-16T10:43:06.644Z,29.93
2022-12-16T10:45:59.265Z,30.30
2022-12-16T10:48:55.143Z,29.63
2022-12-16T10:51:43.425Z,28.90
2022-12-16T10:54:50.296Z,27.67
2022-12-16T10:57:48.868Z,32.97
2022-12-16T11:00:36.674Z,34.63
2022-12-16T11:03:38.221Z,30.47
2022-12-16T11:06:24.919Z,33.87
2022-12-16T11:09:10.161Z,30.07
2022-12-16T11:11:55.714Z,32.13
2022-12-16T11:15:05.650Z,30.50
2022-12-16T11:17:47.889Z,32.07
2022-12-16T11:20:36.323Z,35.37
2022-12-16T11:23:48.523Z,34.27
2022-12-16T11:26:38.487Z,29.23
2022-12-16T11:29:31.916Z,34.33
2022-12-16T11:32:21.280Z,28.73
2022-12-16T11:35:12.051Z,33.67
2022-12-16T11:38:04.379Z,31.90
2022-12-16T11:40:51.188Z,32.60
2022-12-16T11:43:37.966Z,31.53
2022-12-16T11:46:28.441Z,32.80
2022-12-16T11:49:23.415Z,29.53
2022-12-16T11:52:35.840Z,30.63
2022-12-16T11:56:03.634Z,32.97
2022-12-16T11:58:44.058Z,28.60
2022-12-16T12:01:33.451Z,32.87
2022-12-16T12:04:18.621Z,27.90
2022-12-16T12:07:24.185Z,28.43
2022-12-16T12:10:19.234Z,28.87
2022-12-16T12:13:14.749Z,27.63
2022-12-16T12:16:08.197Z,30.33
2022-12-16T12:19:18.348Z,29.13
2022-12-16T12:22:10.919Z,28.03
2022-12-16T12:25:04.829Z,28.00
2022-12-16T12:27:57.319Z,27.83
2022-12-16T12:30:43.867Z,28.17
2022-12-16T12:33:46.456Z,28.03
2022-12-16T12:36:38.270Z,24.87
2022-12-16T12:39:35.604Z,25.57
2022-12-16T12:42:35.523Z,24.63
2022-12-16T12:45:36.738Z,25.20
2022-12-16T12:48:29.972Z,26.03
2022-12-16T12:51:23.495Z,26.27
2022-12-16T12:54:18.959Z,26.13
2022-12-16T12:57:07.508Z,26.40
2022-12-16T13:00:12.285Z,27.60
2022-12-16T13:03:05.438Z,25.43
2022-12-16T13:05:55.517Z,26.70
2022-12-16T13:09:04.857Z,27.73
2022-12-16T13:11:50.040Z,23.87
2022-12-16T13:15:12.059Z,27.47
2022-12-16T13:18:45.787Z,24.67
2022-12-16T13:22:02.883Z,23.43
2022-12-16T13:25:09.276Z,26.97
2022-12-16T13:28:08.779Z,23.47
2022-12-16T13:30:54.068Z,24.17
2022-12-16T13:33:57.413Z,23.73
2022-12-16T13:36:53.338Z,26.83
2022-12-16T13:39:48.566Z,25.10
2022-12-16T13:43:08.953Z,24.53
2022-12-16T13:45:56.792Z,24.90
2022-12-16T13:48:51.004Z,24.47
2022-12-16T13:52:24.527Z,25.57
2022-12-16T13:55:33.388Z,24.60
2022-12-16T13:58:23.719Z,26.37
2022-12-16T14:01:22.921Z,26.53
2022-12-16T14:04:11.067Z,24.03
2022-12-16T14:06:58.376Z,24.80
2022-12-16T14:09:50.783Z,23.43
2022-12-16T14:12:55.695Z,25.70
2022-12-16T14:15:46.343Z,24.40
2022-12-16T14:18:43.909Z,29.17
2022-12-16T14:21:35.547Z,26.00
2022-12-16T14:24:25.924Z,26.27
2022-12-16T14:27:11.273Z,25.97
2022-12-16T14:30:01.946Z,28.00
2022-12-16T14:32:48.793Z,23.77
2022-12-16T14:35:36.803Z,24.37
2022-12-16T14:38:40.072Z,26.17
2022-12-16T14:41:29.563Z,25.93
2022-12-16T14:44:14.765Z,25.00
2022-12-16T14:47:01.511Z,24.30
2022-12-16T14:49:48.283Z,23.87
2022-12-16T14:52:46.184Z,25.40
2022-12-16T14:55:35.049Z,24.73
2022-12-16T14:58:22.727Z,22.73
2022-12-16T15:01:13.787Z,26.17
2022-12-16T15:04:04.428Z,25.13
2022-12-16T15:06:54.929Z,28.07
2022-12-16T15:09:44.332Z,29.50
2022-12-16T15:12:31.797Z,26.70
2022-12-16T15:15:17.994Z,27.57
2022-12-16T15:18:08.288Z,27.47
2022-12-16T15:20:56.879Z,26.20
2022-12-16T15:23:45.328Z,25.87
2022-12-16T15:26:36.244Z,23.23
2022-12-16T15:29:21.502Z,22.67
2022-12-16T15:32:06.850Z,22.77
2022-12-16T15:35:03.524Z,21.40
2022-12-16T15:38:00.656Z,22.87
2022-12-16T15:40:51.551Z,24.73
2022-12-16T15:43:41.892Z,23.53
2022-12-16T15:46:36.421Z,22.10
2022-12-16T15:49:21.899Z,21.53
2022-12-16T15:52:09.308Z,18.47
2022-12-16T15:55:10.692Z,19.93
2022-12-16T15:57:56.958Z,20.87
2022-12-16T16:00:45.057Z,19.47
2022-12-16T16:03:42.653Z,20.03
2022-12-16T16:06:41.863Z,23.70
2022-12-16T16:09:32.125Z,23.20
2022-12-16T16:12:18.652Z,21.03
2022-12-16T16:15:04.055Z,20.27
2022-12-16T16:18:03.999Z,19.77
2022-12-16T16:20:49.079Z,22.80
2022-12-16T16:23:34.751Z,21.70
2022-12-16T16:26:20.355Z,19.87
2022-12-16T16:29:07.009Z,23.23
2022-12-16T16:31:51.499Z,22.50
2022-12-16T16:34:36.835Z,19.03
2022-12-16T16:37:22.286Z,24.20
2022-12-16T16:40:22.138Z,22.07
2022-12-16T16:43:07.551Z,21.20
2022-12-16T16:45:53.333Z,21.90
2022-12-16T16:48:38.635Z,24.00
2022-12-16T16:51:23.925Z,21.90
2022-12-16T16:54:09.283Z,22.20
2022-12-16T16:56:56.047Z,20.87
2022-12-16T16:59:42.794Z,23.20
2022-12-16T17:02:40.415Z,21.93
2022-12-16T17:05:26.941Z,26.10
2022-12-16T17:08:12.332Z,23.23
2022-12-16T17:10:57.626Z,25.73
2022-12-16T17:13:42.838Z,31.20
2022-12-16T17:16:29.410Z,24.63
2022-12-16T17:19:15.887Z,24.10
2022-12-16T17:22:01.164Z,25.37
2022-12-16T17:24:49.272Z,26.80
2022-12-16T17:27:38.809Z,24.33
2022-12-16T17:30:31.111Z,29.10
2022-12-16T17:33:16.330Z,25.17
2022-12-16T17:36:02.931Z,24.57
2022-12-16T17:38:48.248Z,22.93
2022-12-16T17:41:33.596Z,23.73
2022-12-16T17:44:18.968Z,25.17
2022-12-16T17:47:04.392Z,23.70
2022-12-16T17:49:49.492Z,22.73
2022-12-16T17:52:36.156Z,23.83
2022-12-16T17:55:21.508Z,23.80
2022-12-16T17:58:06.985Z,26.63
2022-12-16T18:00:52.225Z,24.53
2022-12-16T18:03:38.045Z,25.53
2022-12-16T18:06:24.191Z,26.13
2022-12-16T18:09:10.793Z,26.53
2022-12-16T18:11:56.086Z,25.30
2022-12-16T18:14:43.648Z,27.30
2022-12-16T18:17:28.872Z,26.87
2022-12-16T18:20:22.641Z,29.60
2022-12-16T18:23:11.005Z,29.63
2022-12-16T18:25:57.767Z,27.83
2022-12-16T18:28:42.994Z,27.53
2022-12-16T18:31:28.502Z,26.77
2022-12-16T18:34:13.791Z,28.90
2022-12-16T18:36:59.140Z,30.93
2022-12-16T18:39:44.442Z,29.23
2022-12-16T18:42:30.972Z,28.10
2022-12-16T18:45:16.381Z,26.53
2022-12-16T18:48:01.670Z,27.83
2022-12-16T18:50:46.932Z,27.60
2022-12-16T18:53:32.794Z,25.80
2022-12-16T18:56:19.590Z,29.33
2022-12-16T18:59:06.163Z,26.33
2022-12-16T19:01:53.742Z,33.00
2022-12-16T19:04:39.128Z,29.67
2022-12-16T19:07:24.520Z,31.13
2022-12-16T19:10:12.446Z,29.30
2022-12-16T19:12:57.769Z,28.33
2022-12-16T19:15:44.454Z,29.37
2022-12-16T19:18:30.290Z,28.03
2022-12-16T19:21:15.940Z,26.33
2022-12-16T19:24:01.770Z,26.83
2022-12-16T19:26:47.038Z,24.63
2022-12-16T19:29:32.597Z,23.83
2022-12-16T19:32:19.322Z,27.90
2022-12-16T19:35:04.315Z,29.30
2022-12-16T19:37:49.780Z,26.67
2022-12-16T19:40:34.962Z,28.17
2022-12-16T19:43:20.226Z,27.13
2022-12-16T19:46:11.102Z,31.43
2022-12-16T19:48:57.898Z,29.30
2022-12-16T19:51:43.220Z,26.07
2022-12-16T19:54:28.594Z,26.97
2022-12-16T19:57:13.857Z,23.40
2022-12-16T19:59:59.235Z,25.00
2022-12-16T20:02:44.515Z,25.90
2022-12-16T20:05:31.152Z,27.03
2022-12-16T20:08:16.480Z,24.43
2022-12-16T20:11:01.766Z,25.50
2022-12-16T20:13:47.183Z,25.13
2022-12-16T20:16:32.395Z,25.57
2022-12-16T20:19:17.752Z,27.30
2022-12-16T20:25:09.492Z,29.90
2022-12-16T20:27:55.036Z,25.17
2022-12-16T20:30:44.696Z,27.33
2022-12-16T20:33:37.290Z,27.07
2022-12-16T20:36:23.528Z,27.77
2022-12-16T20:39:10.036Z,30.67
2022-12-16T20:41:55.953Z,28.57
2022-12-16T20:44:41.702Z,31.70
2022-12-16T20:47:27.098Z,28.67
2022-12-16T20:50:12.440Z,30.83
2022-12-16T20:52:57.765Z,28.97
2022-12-16T20:55:44.472Z,31.17
2022-12-16T20:58:29.790Z,28.07
2022-12-16T21:01:15.532Z,27.13
2022-12-16T21:04:01.073Z,28.63
2022-12-16T21:06:46.352Z,26.90
2022-12-16T21:09:31.686Z,26.17
2022-12-16T21:12:18.229Z,26.37
2022-12-16T21:14:42.314Z,27.27
2022-12-16T21:15:03.607Z,26.93
2022-12-16T21:17:48.883Z,25.63
2022-12-16T21:20:33.344Z,30.80
2022-12-16T21:23:21.044Z,22.80
2022-12-16T21:26:06.271Z,20.50
2022-12-16T21:28:58.216Z,21.03
2022-12-16T21:31:43.682Z,20.87
2022-12-16T21:34:28.963Z,22.33
2022-12-16T21:37:14.300Z,20.63
2022-12-16T21:39:59.655Z,20.77
2022-12-16T21:42:44.939Z,22.87
2022-12-16T21:45:31.614Z,20.67
2022-12-16T21:48:17.095Z,22.67
2022-12-16T21:51:02.422Z,21.80
2022-12-16T21:53:48.235Z,22.30
2022-12-16T21:56:36.114Z,26.37
2022-12-16T21:59:21.467Z,23.80
2022-12-16T22:02:08.104Z,22.17
2022-12-16T22:04:53.487Z,23.50
2022-12-16T22:07:38.739Z,24.60
2022-12-16T22:10:24.639Z,28.53
2022-12-16T22:13:09.992Z,23.23
2022-12-16T22:15:59.433Z,24.03
2022-12-16T22:18:45.344Z,21.83
2022-12-16T22:21:30.262Z,25.10
2022-12-16T22:24:21.644Z,21.20
2022-12-16T22:27:20.337Z,20.83
2022-12-16T22:30:12.281Z,21.27
2022-12-16T22:33:24.025Z,22.60
2022-12-16T22:36:33.858Z,21.83
2022-12-16T22:39:19.255Z,20.77
2022-12-16T22:42:04.530Z,22.27
2022-12-16T22:44:49.878Z,20.10
2022-12-16T22:47:35.457Z,19.13
2022-12-16T22:50:20.836Z,21.07
2022-12-16T22:53:07.424Z,22.57
2022-12-16T22:56:00.135Z,21.60
2022-12-16T22:58:46.922Z,20.97
2022-12-16T23:01:32.361Z,22.63
2022-12-16T23:04:17.753Z,19.43
2022-12-16T23:07:02.840Z,20.00
2022-12-16T23:09:49.554Z,19.20
2022-12-16T23:12:34.822Z,18.77
2022-12-16T23:15:20.235Z,18.90
2022-12-16T23:18:05.554Z,19.37
2022-12-16T23:20:51.039Z,19.80
2022-12-16T23:23:37.545Z,18.77
2022-12-16T23:26:24.168Z,20.97
2022-12-16T23:29:10.165Z,18.80
2022-12-16T23:31:56.631Z,19.43
2022-12-16T23:34:46.526Z,19.63
2022-12-16T23:37:31.766Z,22.57
2022-12-16T23:40:17.247Z,19.47
2022-12-16T23:43:05.384Z,19.43
2022-12-16T23:45:59.109Z,17.57
2022-12-16T23:48:44.599Z,18.47
2022-12-16T23:51:29.927Z,20.50
2022-12-16T23:54:11.700Z,18.00
2022-12-16T23:56:57.077Z,17.97
2022-12-16T23:59:43.572Z,19.03
